Time;durP1;ratioP1;P1;durP2;ratioP2;P2;SDS_P1;SDS_P2;PMS_P1;PMS_P2;Temp;Humidity;BMP_temperature;BMP_pressure;BME280_temperature;BME280_humidity;BME280_pressure;Samples;Min_cycle;Max_cycle;Signal;HPM_P1;HPM_P2
2023/08/18 00:00:54;;;;;;;;;;;24.20;59.20;;;;;;1548917;76;666;-57
2023/08/18 00:02:56;;;;;;;;;;;24.20;59.20;;;;;;1555773;75;1507;-54
2023/08/18 00:04:57;;;;;;;;;;;24.20;59.20;;;;;;1568157;75;687;-53
2023/08/18 00:06:59;;;;;;;;;;;24.20;59.20;;;;;;1564132;74;675;-55
2023/08/18 00:09:02;;;;;;;;;;;24.20;59.30;;;;;;1561776;75;1176;-56
2023/08/18 00:11:04;;;;;;;;;;;24.20;59.20;;;;;;1566073;75;759;-53
2023/08/18 00:13:06;;;;;;;;;;;24.30;59.30;;;;;;1545946;75;644;-54
2023/08/18 00:15:08;;;;;;;;;;;24.30;59.40;;;;;;1556665;74;700;-57
2023/08/18 00:17:10;;;;;;;;;;;24.30;59.40;;;;;;1561632;74;1922;-56
2023/08/18 00:19:12;;;;;;;;;;;24.30;59.30;;;;;;1558015;74;1162;-55
2023/08/18 00:21:14;;;;;;;;;;;24.30;59.30;;;;;;1530064;78;679;-54
2023/08/18 00:23:16;;;;;;;;;;;24.20;59.20;;;;;;1545550;76;771;-56
2023/08/18 00:25:17;;;;;;;;;;;24.20;59.10;;;;;;1546910;76;736;-55
2023/08/18 00:27:19;;;;;;;;;;;24.20;59.20;;;;;;1551800;75;765;-53
2023/08/18 00:29:21;;;;;;;;;;;24.20;59.20;;;;;;1527465;77;1143;-56
2023/08/18 00:31:24;;;;;;;;;;;24.30;59.30;;;;;;1568702;74;1457;-56
2023/08/18 00:33:26;;;;;;;;;;;24.20;59.10;;;;;;1563572;74;679;-56
2023/08/18 00:35:28;;;;;;;;;;;24.30;59.20;;;;;;1558391;74;1927;-55
2023/08/18 00:37:30;;;;;;;;;;;24.20;59.00;;;;;;1556346;74;737;-54
2023/08/18 00:39:32;;;;;;;;;;;24.30;59.20;;;;;;1564345;74;1140;-57
2023/08/18 00:41:34;;;;;;;;;;;24.20;59.10;;;;;;1571537;74;753;-57
2023/08/18 00:43:36;;;;;;;;;;;24.30;59.20;;;;;;1565781;74;699;-53
2023/08/18 00:45:38;;;;;;;;;;;24.20;59.10;;;;;;1563063;75;1580;-55
2023/08/18 00:47:39;;;;;;;;;;;24.20;59.10;;;;;;1530006;76;831;-57
2023/08/18 00:49:41;;;;;;;;;;;24.20;59.10;;;;;;1569303;74;1152;-55
2023/08/18 00:51:43;;;;;;;;;;;24.20;59.10;;;;;;1567701;74;707;-54
2023/08/18 00:53:45;;;;;;;;;;;24.30;59.20;;;;;;1562991;74;689;-56
2023/08/18 00:55:47;;;;;;;;;;;24.20;59.10;;;;;;1530210;76;1929;-56
2023/08/18 00:57:49;;;;;;;;;;;24.20;59.10;;;;;;1546022;75;1538;-55
2023/08/18 00:59:51;;;;;;;;;;;24.20;59.10;;;;;;1561005;74;1205;-54
2023/08/18 01:01:53;;;;;;;;;;;24.20;59.10;;;;;;1557255;74;792;-56
2023/08/18 01:03:55;;;;;;;;;;;24.20;59.00;;;;;;1567123;74;638;-54
2023/08/18 01:05:58;;;;;;;;;;;24.20;59.00;;;;;;1561126;74;760;-55
2023/08/18 01:08:00;;;;;;;;;;;24.20;59.00;;;;;;1557345;74;747;-54
2023/08/18 01:10:02;;;;;;;;;;;24.20;59.00;;;;;;1572872;74;1163;-56
2023/08/18 01:12:15;;;;;;;;;;;24.20;59.00;;;;;;1562720;75;1539;-54
2023/08/18 01:14:22;;;;;;;;;;;24.20;59.10;;;;;;1557442;75;1614;-54
2023/08/18 01:16:27;;;;;;;;;;;24.20;59.10;;;;;;1564970;74;1918;-55
2023/08/18 01:18:29;;;;;;;;;;;24.30;59.20;;;;;;1570165;74;690;-54
2023/08/18 01:20:31;;;;;;;;;;;24.20;59.10;;;;;;1564868;74;1297;-53
2023/08/18 01:22:34;;;;;;;;;;;24.20;59.00;;;;;;1560688;75;616;-53
2023/08/18 01:24:36;;;;;;;;;;;24.20;59.00;;;;;;1568752;74;697;-56
2023/08/18 01:26:38;;;;;;;;;;;24.20;59.00;;;;;;1569936;74;1468;-56
2023/08/18 01:28:40;;;;;;;;;;;24.20;59.00;;;;;;1575969;74;764;-57
2023/08/18 01:30:43;;;;;;;;;;;24.20;59.00;;;;;;1554741;75;696;-55
2023/08/18 01:32:52;;;;;;;;;;;24.20;59.00;;;;;;1558117;75;665;-57
2023/08/18 01:34:54;;;;;;;;;;;24.20;59.00;;;;;;1569530;74;691;-56
2023/08/18 01:36:56;;;;;;;;;;;24.20;58.90;;;;;;1559197;75;1938;-55
2023/08/18 01:38:58;;;;;;;;;;;24.20;58.90;;;;;;1565630;74;1132;-56
2023/08/18 01:40:59;;;;;;;;;;;24.20;58.90;;;;;;1557589;75;1483;-56
2023/08/18 01:43:01;;;;;;;;;;;24.20;58.90;;;;;;1561042;75;675;-53
2023/08/18 01:45:03;;;;;;;;;;;24.20;58.90;;;;;;1566818;75;692;-54
2023/08/18 01:47:05;;;;;;;;;;;24.20;58.90;;;;;;1567914;74;810;-54
2023/08/18 01:49:07;;;;;;;;;;;24.20;58.90;;;;;;1566485;74;1177;-53
2023/08/18 01:51:09;;;;;;;;;;;24.20;58.90;;;;;;1567843;75;730;-56
2023/08/18 01:53:11;;;;;;;;;;;24.20;58.90;;;;;;1569436;74;782;-57
2023/08/18 01:55:13;;;;;;;;;;;24.20;58.90;;;;;;1567995;74;1584;-57
2023/08/18 01:57:15;;;;;;;;;;;24.20;58.90;;;;;;1570324;75;1942;-57
2023/08/18 01:59:17;;;;;;;;;;;24.20;58.80;;;;;;1560737;74;1157;-57
2023/08/18 02:01:18;;;;;;;;;;;24.20;58.80;;;;;;1566333;74;761;-53
2023/08/18 02:03:20;;;;;;;;;;;24.20;58.80;;;;;;1530577;78;647;-54
2023/08/18 02:05:22;;;;;;;;;;;24.20;58.80;;;;;;1578370;74;666;-53
2023/08/18 02:07:24;;;;;;;;;;;24.20;58.80;;;;;;1564979;74;699;-56
2023/08/18 02:09:26;;;;;;;;;;;24.20;58.80;;;;;;1524711;78;1327;-56
2023/08/18 02:11:28;;;;;;;;;;;24.20;58.80;;;;;;1565667;74;669;-55
2023/08/18 02:13:30;;;;;;;;;;;24.20;58.70;;;;;;1559456;74;754;-57
2023/08/18 02:15:32;;;;;;;;;;;24.20;58.80;;;;;;1553743;74;938;-57
2023/08/18 02:17:34;;;;;;;;;;;24.20;58.70;;;;;;1555763;74;1929;-56
2023/08/18 02:19:36;;;;;;;;;;;24.20;58.70;;;;;;1570848;75;1211;-54
2023/08/18 02:21:38;;;;;;;;;;;24.20;58.80;;;;;;1567501;75;756;-54
2023/08/18 02:23:39;;;;;;;;;;;24.20;58.70;;;;;;1569466;75;1629;-55
2023/08/18 02:25:41;;;;;;;;;;;24.20;58.70;;;;;;1564840;75;785;-56
2023/08/18 02:27:43;;;;;;;;;;;24.20;58.70;;;;;;1555596;74;764;-55
2023/08/18 02:29:45;;;;;;;;;;;24.20;58.70;;;;;;1561728;74;1139;-56
2023/08/18 02:31:47;;;;;;;;;;;24.10;58.70;;;;;;1554511;74;670;-56
2023/08/18 02:33:50;;;;;;;;;;;24.20;58.70;;;;;;1565554;74;688;-57
2023/08/18 02:35:52;;;;;;;;;;;24.20;58.70;;;;;;1556358;74;708;-57
2023/08/18 02:37:53;;;;;;;;;;;24.20;58.60;;;;;;1529472;76;1945;-54
2023/08/18 02:39:55;;;;;;;;;;;24.20;58.70;;;;;;1561110;74;1199;-56
2023/08/18 02:41:57;;;;;;;;;;;24.20;58.70;;;;;;1568093;75;688;-53
2023/08/18 02:43:59;;;;;;;;;;;24.20;58.70;;;;;;1566738;74;683;-53
2023/08/18 02:46:02;;;;;;;;;;;24.10;58.70;;;;;;1566117;74;772;-54
2023/08/18 02:48:04;;;;;;;;;;;24.20;58.60;;;;;;1578816;74;784;-55
2023/08/18 02:50:09;;;;;;;;;;;24.20;58.60;;;;;;1557999;74;1232;-55
2023/08/18 02:52:11;;;;;;;;;;;24.20;58.60;;;;;;1569054;74;1672;-56
2023/08/18 02:54:12;;;;;;;;;;;24.20;58.60;;;;;;1555680;75;663;-56
2023/08/18 02:56:15;;;;;;;;;;;24.20;58.50;;;;;;1565738;74;705;-54
2023/08/18 02:58:17;;;;;;;;;;;24.20;58.60;;;;;;1564347;74;677;-54
2023/08/18 03:00:19;;;;;;;;;;;24.10;58.60;;;;;;1565820;74;1141;-54
2023/08/18 03:02:21;;;;;;;;;;;24.20;58.50;;;;;;1566636;74;692;-55
2023/08/18 03:04:23;;;;;;;;;;;24.20;58.40;;;;;;1568416;74;1542;-53
2023/08/18 03:06:25;;;;;;;;;;;24.20;58.60;;;;;;1552800;74;657;-53
2023/08/18 03:08:27;;;;;;;;;;;24.10;58.50;;;;;;1570653;74;947;-56
2023/08/18 03:10:29;;;;;;;;;;;24.10;58.50;;;;;;1561757;74;1138;-54
2023/08/18 03:12:30;;;;;;;;;;;24.10;58.50;;;;;;1564245;75;695;-54
2023/08/18 03:14:32;;;;;;;;;;;24.20;58.40;;;;;;1562669;74;718;-57
2023/08/18 03:16:34;;;;;;;;;;;24.20;58.40;;;;;;1557562;74;1954;-56
2023/08/18 03:18:36;;;;;;;;;;;24.10;58.30;;;;;;1571127;74;1615;-55
2023/08/18 03:20:38;;;;;;;;;;;24.20;58.40;;;;;;1567769;75;1205;-53
2023/08/18 03:22:40;;;;;;;;;;;24.10;58.40;;;;;;1570509;75;774;-57
2023/08/18 03:24:42;;;;;;;;;;;24.10;58.40;;;;;;1562471;74;846;-56
2023/08/18 03:26:44;;;;;;;;;;;24.20;58.40;;;;;;1567801;75;722;-54
2023/08/18 03:28:46;;;;;;;;;;;24.20;58.40;;;;;;1564510;74;1148;-54
2023/08/18 03:30:48;;;;;;;;;;;24.10;58.40;;;;;;1554791;75;699;-56
2023/08/18 03:32:52;;;;;;;;;;;24.20;58.40;;;;;;1566140;74;1432;-54
2023/08/18 03:34:56;;;;;;;;;;;24.20;58.40;;;;;;1567636;75;1646;-53
2023/08/18 03:36:58;;;;;;;;;;;24.10;58.40;;;;;;1563246;75;1930;-57
2023/08/18 03:39:00;;;;;;;;;;;24.10;58.40;;;;;;1554046;74;1151;-55
2023/08/18 03:41:05;;;;;;;;;;;24.10;58.40;;;;;;1563716;74;818;-54
2023/08/18 03:43:07;;;;;;;;;;;24.10;58.30;;;;;;1560519;74;776;-55
2023/08/18 03:45:09;;;;;;;;;;;24.10;58.30;;;;;;1562808;75;626;-54
2023/08/18 03:47:11;;;;;;;;;;;24.10;58.40;;;;;;1555115;74;1569;-54
2023/08/18 03:49:13;;;;;;;;;;;24.10;58.30;;;;;;1565001;75;1133;-55
2023/08/18 03:51:15;;;;;;;;;;;24.10;58.30;;;;;;1561622;75;769;-55
2023/08/18 03:53:17;;;;;;;;;;;24.10;58.40;;;;;;1556798;74;871;-56
2023/08/18 03:55:19;;;;;;;;;;;24.10;58.30;;;;;;1570790;74;664;-53
2023/08/18 03:57:21;;;;;;;;;;;24.10;58.20;;;;;;1558399;74;1925;-56
2023/08/18 03:59:22;;;;;;;;;;;24.20;58.30;;;;;;1565173;74;1098;-54
2023/08/18 04:01:24;;;;;;;;;;;24.20;58.30;;;;;;1562810;74;1393;-55
2023/08/18 04:03:26;;;;;;;;;;;24.20;58.30;;;;;;1571132;74;1037;-54
2023/08/18 04:05:28;;;;;;;;;;;24.10;58.10;;;;;;1570719;74;688;-54
2023/08/18 04:07:30;;;;;;;;;;;24.20;58.10;;;;;;1562352;74;666;-56
2023/08/18 04:09:32;;;;;;;;;;;24.10;58.20;;;;;;1570854;74;1089;-55
2023/08/18 04:11:34;;;;;;;;;;;24.10;58.20;;;;;;1565397;75;764;-55
2023/08/18 04:13:36;;;;;;;;;;;24.10;58.20;;;;;;1570343;74;752;-56
2023/08/18 04:15:38;;;;;;;;;;;24.20;58.20;;;;;;1571371;74;1583;-56
2023/08/18 04:17:39;;;;;;;;;;;24.10;58.10;;;;;;1561336;74;1938;-55
2023/08/18 04:19:41;;;;;;;;;;;24.10;58.10;;;;;;1565008;75;1192;-54
2023/08/18 04:21:43;;;;;;;;;;;24.10;58.10;;;;;;1569292;75;769;-56
2023/08/18 04:23:46;;;;;;;;;;;24.10;58.10;;;;;;1569493;74;687;-54
2023/08/18 04:25:48;;;;;;;;;;;24.20;58.00;;;;;;1566565;74;676;-53
2023/08/18 04:27:50;;;;;;;;;;;24.10;58.00;;;;;;1567706;74;673;-54
2023/08/18 04:29:52;;;;;;;;;;;24.10;58.10;;;;;;1565168;74;1622;-57
2023/08/18 04:31:54;;;;;;;;;;;24.10;58.00;;;;;;1570799;74;690;-55
2023/08/18 04:33:56;;;;;;;;;;;24.10;57.90;;;;;;1558205;75;697;-54
2023/08/18 04:35:58;;;;;;;;;;;24.10;57.80;;;;;;1559876;74;724;-54
2023/08/18 04:38:00;;;;;;;;;;;24.20;57.70;;;;;;1566680;74;1909;-55
2023/08/18 04:40:04;;;;;;;;;;;24.10;57.60;;;;;;1568688;74;1138;-54
2023/08/18 04:42:05;;;;;;;;;;;24.10;57.80;;;;;;1566779;74;2013;-57
2023/08/18 04:44:08;;;;;;;;;;;24.10;57.80;;;;;;1567584;75;1469;-54
2023/08/18 04:46:09;;;;;;;;;;;24.20;57.80;;;;;;1554032;76;699;-54
2023/08/18 04:48:11;;;;;;;;;;;24.10;57.80;;;;;;1552509;76;762;-55
2023/08/18 04:50:14;;;;;;;;;;;24.10;57.90;;;;;;1540408;75;1189;-56
2023/08/18 04:52:16;;;;;;;;;;;24.10;58.00;;;;;;1558846;75;687;-55
2023/08/18 04:54:18;;;;;;;;;;;24.10;58.10;;;;;;1568781;74;798;-57
2023/08/18 04:56:20;;;;;;;;;;;24.10;58.10;;;;;;1562022;74;774;-55
2023/08/18 04:58:22;;;;;;;;;;;24.10;58.10;;;;;;1565223;74;1930;-56
2023/08/18 05:00:24;;;;;;;;;;;24.10;58.10;;;;;;1569357;74;1113;-55
2023/08/18 05:02:26;;;;;;;;;;;24.10;58.10;;;;;;1570167;75;725;-55
2023/08/18 05:04:28;;;;;;;;;;;24.00;58.00;;;;;;1568571;74;748;-55
2023/08/18 05:06:30;;;;;;;;;;;24.10;58.10;;;;;;1568995;75;720;-53
2023/08/18 05:08:32;;;;;;;;;;;24.00;58.00;;;;;;1559251;74;691;-56
2023/08/18 05:10:34;;;;;;;;;;;24.10;58.10;;;;;;1561559;74;1109;-56
2023/08/18 05:12:36;;;;;;;;;;;24.10;58.10;;;;;;1557408;74;1562;-55
2023/08/18 05:14:37;;;;;;;;;;;24.10;58.10;;;;;;1561490;74;674;-57
2023/08/18 05:16:40;;;;;;;;;;;24.20;58.20;;;;;;1555194;74;706;-56
2023/08/18 05:18:42;;;;;;;;;;;24.10;58.20;;;;;;1564751;75;1916;-56
2023/08/18 05:20:44;;;;;;;;;;;24.10;58.20;;;;;;1565203;75;866;-57
2023/08/18 05:22:46;;;;;;;;;;;24.10;58.20;;;;;;1570755;74;740;-56
2023/08/18 05:24:50;;;;;;;;;;;24.10;58.20;;;;;;1567067;74;678;-55
2023/08/18 05:26:52;;;;;;;;;;;24.00;58.20;;;;;;1555350;75;1703;-54
2023/08/18 05:28:54;;;;;;;;;;;24.10;58.40;;;;;;1564682;74;1097;-56
2023/08/18 05:30:56;;;;;;;;;;;24.10;58.40;;;;;;1572398;74;745;-55
2023/08/18 05:32:58;;;;;;;;;;;24.00;58.30;;;;;;1559415;74;793;-54
2023/08/18 05:35:00;;;;;;;;;;;24.10;58.40;;;;;;1563177;74;742;-55
2023/08/18 05:37:02;;;;;;;;;;;24.00;58.40;;;;;;1570013;74;693;-54
2023/08/18 05:39:04;;;;;;;;;;;24.10;58.50;;;;;;1555533;74;1916;-54
2023/08/18 05:41:07;;;;;;;;;;;24.10;58.50;;;;;;1564155;75;737;-56
2023/08/18 05:43:12;;;;;;;;;;;24.10;58.60;;;;;;1566187;75;772;-54
2023/08/18 05:45:14;;;;;;;;;;;24.10;58.60;;;;;;1564734;74;662;-57
2023/08/18 05:47:16;;;;;;;;;;;24.10;58.60;;;;;;1569068;75;770;-57
2023/08/18 05:49:19;;;;;;;;;;;24.10;58.60;;;;;;1565300;74;1153;-57
2023/08/18 05:51:21;;;;;;;;;;;24.10;58.60;;;;;;1569109;74;769;-56
2023/08/18 05:53:23;;;;;;;;;;;24.10;58.70;;;;;;1553644;74;1566;-56
2023/08/18 05:55:25;;;;;;;;;;;24.10;58.70;;;;;;1556444;74;897;-56
2023/08/18 05:57:27;;;;;;;;;;;24.10;58.80;;;;;;1571339;74;1906;-54
2023/08/18 05:59:31;;;;;;;;;;;24.10;58.70;;;;;;1562032;74;1135;-56
2023/08/18 06:01:34;;;;;;;;;;;24.10;58.80;;;;;;1569939;75;694;-55
2023/08/18 06:03:36;;;;;;;;;;;24.10;58.70;;;;;;1564817;75;750;-56
2023/08/18 06:05:37;;;;;;;;;;;24.10;58.80;;;;;;1554569;74;704;-55
2023/08/18 06:07:39;;;;;;;;;;;24.10;58.80;;;;;;1553993;74;1443;-56
2023/08/18 06:09:41;;;;;;;;;;;24.10;58.90;;;;;;1563775;75;1132;-56
2023/08/18 06:11:43;;;;;;;;;;;24.10;58.80;;;;;;1562079;74;748;-54
2023/08/18 06:13:45;;;;;;;;;;;24.00;58.80;;;;;;1552168;74;714;-57
2023/08/18 06:15:50;;;;;;;;;;;24.10;58.90;;;;;;1566373;75;741;-56
2023/08/18 06:17:50;;;;;;;;;;;24.20;59.00;;;;;;1562718;75;1922;-55
2023/08/18 06:19:53;;;;;;;;;;;24.10;59.10;;;;;;1564189;75;1183;-56
2023/08/18 06:21:54;;;;;;;;;;;24.10;59.40;;;;;;1568555;74;1462;-57
2023/08/18 06:23:56;;;;;;;;;;;24.00;59.70;;;;;;1563967;74;792;-56
2023/08/18 06:25:58;;;;;;;;;;;24.00;59.60;;;;;;1568045;74;681;-56
2023/08/18 06:28:00;;;;;;;;;;;24.00;59.60;;;;;;1561433;74;695;-56
2023/08/18 06:30:02;;;;;;;;;;;24.10;59.50;;;;;;1580613;74;1229;-54
2023/08/18 06:32:04;;;;;;;;;;;24.00;59.30;;;;;;1562911;74;688;-56
2023/08/18 06:34:06;;;;;;;;;;;24.00;59.30;;;;;;1562847;74;717;-56
2023/08/18 06:36:08;;;;;;;;;;;24.00;59.30;;;;;;1559144;74;1581;-57
2023/08/18 06:38:10;;;;;;;;;;;24.00;59.30;;;;;;1570183;74;1926;-57
2023/08/18 06:40:13;;;;;;;;;;;24.00;59.30;;;;;;1563087;75;1071;-56
2023/08/18 06:42:15;;;;;;;;;;;24.10;59.40;;;;;;1558950;74;688;-57
2023/08/18 06:44:17;;;;;;;;;;;24.00;59.30;;;;;;1570366;74;756;-56
2023/08/18 06:46:18;;;;;;;;;;;24.10;59.40;;;;;;1559773;74;735;-56
2023/08/18 06:48:20;;;;;;;;;;;24.00;59.30;;;;;;1564188;74;710;-57
2023/08/18 06:50:22;;;;;;;;;;;24.10;59.30;;;;;;1560898;74;1520;-56
2023/08/18 06:52:24;;;;;;;;;;;24.00;59.20;;;;;;1568750;74;643;-54
2023/08/18 06:54:27;;;;;;;;;;;24.10;59.40;;;;;;1564205;74;710;-57
2023/08/18 06:56:29;;;;;;;;;;;24.10;59.40;;;;;;1551976;74;657;-56
2023/08/18 06:58:31;;;;;;;;;;;24.10;59.50;;;;;;1569793;75;1938;-54
2023/08/18 07:00:33;;;;;;;;;;;24.10;59.40;;;;;;1558772;75;1134;-57
2023/08/18 07:02:35;;;;;;;;;;;24.20;59.60;;;;;;1566213;75;759;-55
2023/08/18 07:04:37;;;;;;;;;;;24.10;59.50;;;;;;1562368;74;1546;-57
2023/08/18 07:06:39;;;;;;;;;;;24.10;59.60;;;;;;1563518;74;659;-57
2023/08/18 07:08:41;;;;;;;;;;;24.10;59.70;;;;;;1564348;74;661;-57
2023/08/18 07:10:43;;;;;;;;;;;24.10;59.70;;;;;;1564410;74;753;-57
2023/08/18 07:12:44;;;;;;;;;;;24.10;59.70;;;;;;1550802;74;726;-57
2023/08/18 07:14:46;;;;;;;;;;;24.10;59.80;;;;;;1561039;74;721;-57
2023/08/18 07:16:49;;;;;;;;;;;24.10;59.80;;;;;;1568034;74;799;-57
2023/08/18 07:18:51;;;;;;;;;;;24.20;59.80;;;;;;1558982;75;1920;-57
2023/08/18 07:20:53;;;;;;;;;;;24.10;59.70;;;;;;1568148;75;674;-54
2023/08/18 07:22:55;;;;;;;;;;;24.00;59.70;;;;;;1568228;74;696;-55
2023/08/18 07:24:57;;;;;;;;;;;24.10;59.80;;;;;;1558845;75;849;-55
2023/08/18 07:26:59;;;;;;;;;;;24.20;59.70;;;;;;1569799;75;710;-56
2023/08/18 07:29:01;;;;;;;;;;;24.10;59.70;;;;;;1565061;75;1180;-55
2023/08/18 07:31:03;;;;;;;;;;;24.10;59.60;;;;;;1558509;74;680;-56
2023/08/18 07:33:05;;;;;;;;;;;24.20;59.60;;;;;;1567529;74;1473;-56
2023/08/18 07:35:08;;;;;;;;;;;24.10;59.70;;;;;;1559751;75;719;-55
2023/08/18 07:37:11;;;;;;;;;;;24.20;59.80;;;;;;1565235;74;664;-57
2023/08/18 07:39:12;;;;;;;;;;;24.10;59.70;;;;;;1555090;74;1911;-57
2023/08/18 07:41:14;;;;;;;;;;;24.10;59.70;;;;;;1569552;75;763;-56
2023/08/18 07:43:16;;;;;;;;;;;24.10;59.60;;;;;;1557170;75;707;-56
2023/08/18 07:45:18;;;;;;;;;;;24.10;59.70;;;;;;1563425;74;739;-54
2023/08/18 07:47:20;;;;;;;;;;;24.20;59.70;;;;;;1564160;74;1556;-57
2023/08/18 07:49:22;;;;;;;;;;;24.20;59.70;;;;;;1568442;74;1129;-57
2023/08/18 07:51:24;;;;;;;;;;;24.20;59.60;;;;;;1565437;74;796;-57
2023/08/18 07:53:26;;;;;;;;;;;24.20;59.50;;;;;;1557827;74;760;-57
2023/08/18 07:55:29;;;;;;;;;;;24.20;59.50;;;;;;1568684;75;753;-57
2023/08/18 07:57:31;;;;;;;;;;;24.20;59.60;;;;;;1569803;74;692;-56
2023/08/18 07:59:32;;;;;;;;;;;24.10;59.60;;;;;;1560701;74;1952;-56
2023/08/18 08:01:34;;;;;;;;;;;24.10;59.60;;;;;;1529750;77;1485;-56
2023/08/18 08:03:36;;;;;;;;;;;24.20;59.70;;;;;;1561145;75;713;-56
2023/08/18 08:05:38;;;;;;;;;;;24.10;59.60;;;;;;1561211;75;670;-56
2023/08/18 08:07:40;;;;;;;;;;;24.10;59.70;;;;;;1554334;75;715;-54
2023/08/18 08:09:42;;;;;;;;;;;24.10;59.60;;;;;;1551478;76;1136;-58
2023/08/18 08:11:44;;;;;;;;;;;24.10;59.60;;;;;;1559354;75;653;-54
2023/08/18 08:13:45;;;;;;;;;;;24.10;59.30;;;;;;1561783;74;1556;-57
2023/08/18 08:15:47;;;;;;;;;;;24.20;59.20;;;;;;1564095;74;658;-57
2023/08/18 08:17:49;;;;;;;;;;;24.20;59.20;;;;;;1570239;74;657;-56
2023/08/18 08:19:51;;;;;;;;;;;24.20;59.20;;;;;;1567701;74;1942;-57
2023/08/18 08:21:53;;;;;;;;;;;24.10;59.40;;;;;;1571101;74;785;-54
2023/08/18 08:23:55;;;;;;;;;;;24.20;59.40;;;;;;1556759;74;679;-57
2023/08/18 08:25:57;;;;;;;;;;;24.10;59.40;;;;;;1564645;74;723;-57
2023/08/18 08:27:59;;;;;;;;;;;24.10;59.40;;;;;;1529888;76;1565;-58
2023/08/18 08:30:01;;;;;;;;;;;24.10;59.40;;;;;;1554269;76;1168;-56
2023/08/18 08:32:03;;;;;;;;;;;24.10;59.40;;;;;;1571318;75;663;-56
2023/08/18 08:34:05;;;;;;;;;;;24.20;59.40;;;;;;1538041;75;668;-55
2023/08/18 08:36:07;;;;;;;;;;;24.10;59.40;;;;;;1561191;74;654;-56
2023/08/18 08:38:08;;;;;;;;;;;24.20;59.30;;;;;;1558681;75;791;-55
2023/08/18 08:40:12;;;;;;;;;;;24.10;59.30;;;;;;1558891;75;1939;-57
2023/08/18 08:42:14;;;;;;;;;;;24.20;59.20;;;;;;1558863;74;1464;-58
2023/08/18 08:44:16;;;;;;;;;;;24.20;59.20;;;;;;1560661;74;684;-57
2023/08/18 08:46:18;;;;;;;;;;;24.20;59.00;;;;;;1560331;74;726;-57
2023/08/18 08:48:20;;;;;;;;;;;24.20;58.90;;;;;;1566513;74;663;-54
2023/08/18 08:50:22;;;;;;;;;;;24.20;58.90;;;;;;1562347;74;1086;-56
2023/08/18 08:52:24;;;;;;;;;;;24.20;58.80;;;;;;1571111;75;799;-54
2023/08/18 08:54:26;;;;;;;;;;;24.20;58.90;;;;;;1568069;74;677;-54
2023/08/18 08:56:28;;;;;;;;;;;24.20;58.90;;;;;;1562261;74;1548;-57
2023/08/18 08:58:32;;;;;;;;;;;24.20;58.90;;;;;;1566107;75;1918;-57
2023/08/18 09:00:33;;;;;;;;;;;24.20;59.00;;;;;;1561484;75;1944;-54
2023/08/18 09:02:35;;;;;;;;;;;24.20;58.90;;;;;;1569858;74;734;-56
2023/08/18 09:04:37;;;;;;;;;;;24.20;58.90;;;;;;1541492;76;720;-56
2023/08/18 09:06:39;;;;;;;;;;;24.20;58.90;;;;;;1558365;74;664;-56
2023/08/18 09:08:41;;;;;;;;;;;24.20;59.00;;;;;;1567119;74;717;-55
2023/08/18 09:10:43;;;;;;;;;;;24.20;59.00;;;;;;1561910;74;1555;-56
2023/08/18 09:12:46;;;;;;;;;;;24.20;58.90;;;;;;1565166;74;693;-53
2023/08/18 09:14:48;;;;;;;;;;;24.20;59.00;;;;;;1562849;74;832;-53
2023/08/18 09:16:50;;;;;;;;;;;24.20;58.90;;;;;;1570141;74;903;-56
2023/08/18 09:18:51;;;;;;;;;;;24.20;59.00;;;;;;1558740;74;1958;-53
2023/08/18 09:20:56;;;;;;;;;;;24.20;59.00;;;;;;1569754;75;710;-55
2023/08/18 09:22:57;;;;;;;;;;;24.20;59.00;;;;;;1570977;74;663;-56
2023/08/18 09:24:59;;;;;;;;;;;24.20;59.00;;;;;;1567788;74;1576;-55
2023/08/18 09:27:05;;;;;;;;;;;24.30;59.20;;;;;;1574148;75;694;-55
2023/08/18 09:29:07;;;;;;;;;;;24.20;59.00;;;;;;1563785;74;1189;-56
2023/08/18 09:31:09;;;;;;;;;;;24.30;59.20;;;;;;1571833;74;827;-56
2023/08/18 09:33:11;;;;;;;;;;;24.20;59.10;;;;;;1544403;75;722;-55
2023/08/18 09:35:13;;;;;;;;;;;24.20;59.10;;;;;;1552064;75;600;-56
2023/08/18 09:37:16;;;;;;;;;;;24.20;59.00;;;;;;1551390;75;678;-54
2023/08/18 09:39:18;;;;;;;;;;;24.30;59.20;;;;;;1556696;76;1955;-53
2023/08/18 09:41:20;;;;;;;;;;;24.20;59.10;;;;;;1552114;75;702;-54
2023/08/18 09:43:22;;;;;;;;;;;24.20;59.10;;;;;;1553181;75;662;-54
2023/08/18 09:45:26;;;;;;;;;;;24.20;59.10;;;;;;1539017;76;691;-56
2023/08/18 09:47:29;;;;;;;;;;;24.20;59.10;;;;;;1542311;75;695;-53
2023/08/18 09:49:33;;;;;;;;;;;24.20;59.10;;;;;;1551443;75;1156;-55
2023/08/18 09:51:35;;;;;;;;;;;24.30;59.20;;;;;;1553278;75;998;-56
2023/08/18 09:53:39;;;;;;;;;;;24.30;59.20;;;;;;1559720;75;1346;-54
2023/08/18 09:55:44;;;;;;;;;;;24.20;59.10;;;;;;1557562;75;827;-54
2023/08/18 09:57:50;;;;;;;;;;;24.20;59.20;;;;;;1544555;75;1172;-56
2023/08/18 09:59:54;;;;;;;;;;;24.20;59.10;;;;;;1554676;75;1944;-56
2023/08/18 10:01:56;;;;;;;;;;;24.30;59.20;;;;;;1548258;76;636;-55
2023/08/18 10:03:58;;;;;;;;;;;24.20;59.10;;;;;;1547507;75;1069;-56
2023/08/18 10:06:00;;;;;;;;;;;24.30;59.30;;;;;;1543695;75;735;-55
2023/08/18 10:08:03;;;;;;;;;;;24.30;59.30;;;;;;1546475;75;1497;-56
2023/08/18 10:10:05;;;;;;;;;;;24.30;59.30;;;;;;1538936;76;1127;-55
2023/08/18 10:12:07;;;;;;;;;;;24.30;59.30;;;;;;1556577;75;843;-56
2023/08/18 10:14:09;;;;;;;;;;;24.30;59.30;;;;;;1550391;75;766;-53
2023/08/18 10:16:11;;;;;;;;;;;24.30;59.30;;;;;;1549326;75;652;-56
2023/08/18 10:18:13;;;;;;;;;;;24.30;59.30;;;;;;1549497;75;720;-55
2023/08/18 10:20:15;;;;;;;;;;;24.30;59.30;;;;;;1559009;76;1951;-55
2023/08/18 10:22:17;;;;;;;;;;;24.30;59.40;;;;;;1558316;75;1762;-55
2023/08/18 10:24:19;;;;;;;;;;;24.30;59.40;;;;;;1559147;75;732;-56
2023/08/18 10:26:24;;;;;;;;;;;24.30;59.40;;;;;;1556959;75;679;-56
2023/08/18 10:28:29;;;;;;;;;;;24.30;59.40;;;;;;1558732;75;1089;-54
2023/08/18 10:30:30;;;;;;;;;;;24.30;59.40;;;;;;1549014;75;1161;-56
2023/08/18 10:32:32;;;;;;;;;;;24.30;59.40;;;;;;1558571;75;718;-55
2023/08/18 10:34:34;;;;;;;;;;;24.30;59.50;;;;;;1528550;76;1463;-55
2023/08/18 10:36:36;;;;;;;;;;;24.30;59.40;;;;;;1491403;79;1227;-56
2023/08/18 10:38:39;;;;;;;;;;;24.30;59.40;;;;;;1560746;75;686;-53
2023/08/18 10:40:41;;;;;;;;;;;24.30;59.40;;;;;;1555819;76;1932;-53
2023/08/18 10:42:42;;;;;;;;;;;24.30;59.40;;;;;;1530227;78;698;-56
2023/08/18 10:45:06;;;;;;;;;;;24.30;59.50;;;;;;1549045;76;693;-52
2023/08/18 10:47:26;;;;;;;;;;;24.30;59.50;;;;;;1536694;75;779;-56
2023/08/18 10:49:28;;;;;;;;;;;24.30;59.50;;;;;;1564369;74;1577;-57
2023/08/18 10:51:30;;;;;;;;;;;24.30;59.40;;;;;;1566508;74;716;-57
2023/08/18 10:53:36;;;;;;;;;;;24.30;59.50;;;;;;1569123;75;827;-57
2023/08/18 10:55:39;;;;;;;;;;;24.30;59.40;;;;;;1570830;75;717;-55
2023/08/18 10:57:42;;;;;;;;;;;24.30;59.40;;;;;;1568685;74;718;-57
2023/08/18 10:59:44;;;;;;;;;;;24.40;59.40;;;;;;1568778;75;1921;-57
2023/08/18 11:01:46;;;;;;;;;;;24.30;59.50;;;;;;1571277;74;703;-55
2023/08/18 11:03:48;;;;;;;;;;;24.40;59.50;;;;;;1559066;75;1447;-54
2023/08/18 11:05:50;;;;;;;;;;;24.40;59.40;;;;;;1560300;74;811;-53
2023/08/18 11:07:52;;;;;;;;;;;24.30;59.40;;;;;;1566026;75;674;-57
2023/08/18 11:09:54;;;;;;;;;;;24.30;59.40;;;;;;1555361;74;1145;-55
2023/08/18 11:11:56;;;;;;;;;;;24.30;59.50;;;;;;1569911;74;728;-57
2023/08/18 11:13:58;;;;;;;;;;;24.40;59.50;;;;;;1558316;74;734;-57
2023/08/18 11:16:00;;;;;;;;;;;24.30;59.50;;;;;;1564816;74;723;-57
2023/08/18 11:18:02;;;;;;;;;;;24.40;59.50;;;;;;1559742;75;1453;-57
2023/08/18 11:20:07;;;;;;;;;;;24.40;59.50;;;;;;1561825;74;1954;-55
2023/08/18 11:22:07;;;;;;;;;;;24.40;59.50;;;;;;1578545;74;1587;-55
2023/08/18 11:24:09;;;;;;;;;;;24.40;59.50;;;;;;1563430;74;765;-54
2023/08/18 11:26:11;;;;;;;;;;;24.40;59.50;;;;;;1570133;74;810;-55
2023/08/18 11:28:13;;;;;;;;;;;24.30;59.50;;;;;;1566129;75;683;-55
2023/08/18 11:30:15;;;;;;;;;;;24.40;59.50;;;;;;1568092;74;1169;-57
2023/08/18 11:32:17;;;;;;;;;;;24.40;59.60;;;;;;1530096;78;1483;-55
2023/08/18 11:34:24;;;;;;;;;;;24.40;59.50;;;;;;1538688;76;721;-57
2023/08/18 11:36:24;;;;;;;;;;;24.30;59.50;;;;;;1557906;74;1565;-56
2023/08/18 11:38:26;;;;;;;;;;;24.40;59.60;;;;;;1570842;74;1756;-55
2023/08/18 11:40:28;;;;;;;;;;;24.30;59.60;;;;;;1569190;74;1946;-57
2023/08/18 11:42:30;;;;;;;;;;;24.40;59.60;;;;;;1566605;75;780;-57
2023/08/18 11:44:35;;;;;;;;;;;24.30;59.50;;;;;;1541661;75;787;-57
2023/08/18 11:46:37;;;;;;;;;;;24.30;59.60;;;;;;1547916;76;1569;-57
2023/08/18 11:48:39;;;;;;;;;;;24.40;59.60;;;;;;1547642;76;765;-55
2023/08/18 11:50:42;;;;;;;;;;;24.30;59.50;;;;;;1539739;76;1116;-55
2023/08/18 11:52:45;;;;;;;;;;;24.40;59.50;;;;;;1568764;74;702;-57
2023/08/18 11:54:47;;;;;;;;;;;24.40;59.60;;;;;;1565771;74;707;-55
2023/08/18 11:56:50;;;;;;;;;;;24.30;59.50;;;;;;1528455;78;700;-57
2023/08/18 11:58:52;;;;;;;;;;;24.40;59.60;;;;;;1550803;75;1501;-56
2023/08/18 12:00:54;;;;;;;;;;;24.30;59.60;;;;;;1529402;76;1916;-55
2023/08/18 12:02:56;;;;;;;;;;;24.30;59.50;;;;;;1568742;75;682;-54
2023/08/18 12:04:58;;;;;;;;;;;24.40;59.50;;;;;;1573218;74;678;-56
2023/08/18 12:07:00;;;;;;;;;;;24.50;59.60;;;;;;1569038;75;794;-56
2023/08/18 12:09:05;;;;;;;;;;;24.40;59.50;;;;;;1568853;75;1155;-57